This is the latest recevied weather packets stored in our database for station/object AC0MR. If no packets are shown the sender has not sent any weather packets the latest 10 day(s).
| Time | Temp. | Humidity | Pressure | Rain* | Wind** | Luminosity | Snow |
|---|---|---|---|---|---|---|---|
| 1777755318 | 16.67° C | 32% | 1016.9 hPa | 0 mm | - | 700 W/m² | - |
| 1777754718 | 16.67° C | 31% | 1016.9 hPa | 0 mm | - | 722 W/m² | - |
| 1777754118 | 16.67° C | 33% | 1017.2 hPa | 0 mm | - | 746 W/m² | - |
| 1777753518 | 16.67° C | 33% | 1017.2 hPa | 0 mm | - | 766 W/m² | - |
| 1777752918 | 16.11° C | 33% | 1017.3 hPa | 0 mm | - | 789 W/m² | - |
| 1777752318 | 16.11° C | 32% | 1017.6 hPa | 0 mm | - | 818 W/m² | - |
| 1777751718 | 16.11° C | 34% | 1017.7 hPa | 0 mm | - | 848 W/m² | - |
| 1777751118 | 16.11° C | 35% | 1018 hPa | 0 mm | - | 856 W/m² | - |
| 1777750518 | 16.11° C | 37% | 1018 hPa | 0 mm | - | 877 W/m² | - |
| 1777749918 | 15.56° C | 35% | 1018.2 hPa | 0 mm | - | 868 W/m² | - |
| 1777749318 | 15.56° C | 36% | 1018.2 hPa | 0 mm | - | 885 W/m² | - |
| 1777748718 | 15° C | 33% | 1018.4 hPa | 0 mm | - | 956 W/m² | - |
| 1777748118 | 15.56° C | 35% | 1018.4 hPa | 0 mm | - | 719 W/m² | - |
| 1777747518 | 15.56° C | 34% | 1018.5 hPa | 0 mm | - | 932 W/m² | - |
| 1777746918 | 15.56° C | 38% | 1018.7 hPa | 0 mm | - | 927 W/m² | - |
| 1777746318 | 15° C | 36% | 1018.8 hPa | 0 mm | - | 1004 W/m² | - |
| 1777745718 | 15° C | 36% | 1018.8 hPa | 0 mm | - | 946 W/m² | - |
| 1777745118 | 15° C | 33% | 1019 hPa | 0 mm | - | 988 W/m² | - |
| 1777744518 | 14.44° C | 37% | 1019.1 hPa | 0 mm | - | 968 W/m² | - |
| 1777743918 | 14.44° C | 36% | 1019.3 hPa | 0 mm | - | 963 W/m² | - |
| 1777743318 | 14.44° C | 39% | 1019.2 hPa | 0 mm | - | 940 W/m² | - |
| 1777742718 | 13.89° C | 39% | 1019.4 hPa | 0 mm | - | 992 W/m² | - |
| 1777742118 | 14.44° C | 36% | 1019.6 hPa | 0 mm | - | 227 W/m² | - |
| 1777741518 | 13.89° C | 39% | 1019.7 hPa | 0 mm | - | 941 W/m² | - |
| 1777740918 | 13.89° C | 36% | 1019.8 hPa | 0 mm | - | 398 W/m² | - |
* Rain latest hour (hover to see other rain measurements)
** Current wind speed in m/s (hover to see current wind gust speed)